createdAt,value
2019-03-12T00:01:38.843Z,2.38
2019-03-12T00:06:37.395Z,2.62
2019-03-12T00:11:45.746Z,2.18
2019-03-12T00:16:55.526Z,2.36
2019-03-12T00:22:03.959Z,2.29
2019-03-12T00:27:12.718Z,2.55
2019-03-12T00:32:21.151Z,2.52
2019-03-12T00:37:29.869Z,2.47
2019-03-12T00:42:38.264Z,2.54
2019-03-12T00:47:47.115Z,2.39
2019-03-12T00:52:55.698Z,2.59
2019-03-12T00:58:04.434Z,2.69
2019-03-12T01:03:12.785Z,2.28
2019-03-12T01:08:21.752Z,2.30
2019-03-12T01:13:30.113Z,2.22
2019-03-12T01:18:38.921Z,2.14
2019-03-12T01:23:47.284Z,3.28
2019-03-12T01:28:56.157Z,2.39
2019-03-12T01:34:04.779Z,2.14
2019-03-12T01:39:13.503Z,2.28
2019-03-12T01:44:21.931Z,2.48
2019-03-12T01:49:30.812Z,2.21
2019-03-12T01:54:39.289Z,2.23
2019-03-12T01:59:48.052Z,3.28
2019-03-12T02:04:56.476Z,2.81
2019-03-12T02:10:06.279Z,2.39
2019-03-12T02:15:14.711Z,2.40
2019-03-12T02:20:22.997Z,2.35
2019-03-12T02:25:31.364Z,2.58
2019-03-12T02:30:40.078Z,1.97
2019-03-12T02:35:48.481Z,2.44
2019-03-12T02:40:57.172Z,2.74
2019-03-12T02:46:05.574Z,3.16
2019-03-12T02:51:14.817Z,3.26
2019-03-12T02:56:23.180Z,3.35
2019-03-12T03:01:31.983Z,3.28
2019-03-12T03:06:40.622Z,3.28
2019-03-12T03:11:51.362Z,3.74
2019-03-12T03:16:58.523Z,3.44
2019-03-12T03:22:07.456Z,3.52
2019-03-12T03:28:20.307Z,4.08
2019-03-12T03:33:30.162Z,3.84
2019-03-12T03:38:38.513Z,3.12
2019-03-12T03:43:50.578Z,2.93
2019-03-12T03:48:48.969Z,2.98
2019-03-12T03:53:57.542Z,2.90
2019-03-12T03:59:06.319Z,2.99
2019-03-12T04:04:14.926Z,2.65
2019-03-12T04:09:23.699Z,2.48
2019-03-12T04:14:32.122Z,2.73
2019-03-12T04:19:40.831Z,2.47
2019-03-12T04:24:49.290Z,3.01
2019-03-12T04:29:58.088Z,2.55
2019-03-12T04:35:06.712Z,2.74
2019-03-12T04:40:15.369Z,3.07
2019-03-12T04:45:23.916Z,2.88
2019-03-12T04:50:32.803Z,2.66
2019-03-12T04:55:41.604Z,3.37
2019-03-12T05:00:50.983Z,2.58
2019-03-12T05:05:59.466Z,3.15
2019-03-12T05:11:08.325Z,2.96
2019-03-12T05:16:16.846Z,2.85
2019-03-12T05:21:25.577Z,3.01
2019-03-12T05:26:34.086Z,2.87
2019-03-12T05:31:42.815Z,2.88
2019-03-12T05:36:51.279Z,2.71
2019-03-12T05:42:02.066Z,2.91
2019-03-12T05:47:01.301Z,2.52
2019-03-12T05:52:09.947Z,2.95
2019-03-12T05:57:18.864Z,3.07
2019-03-12T06:02:27.254Z,3.58
2019-03-12T06:07:36.328Z,2.84
2019-03-12T06:12:44.677Z,2.82
2019-03-12T06:17:53.465Z,2.86
2019-03-12T06:23:08.818Z,3.26
2019-03-12T06:28:06.833Z,3.36
2019-03-12T06:33:15.369Z,2.90
2019-03-12T06:38:25.234Z,3.26
2019-03-12T06:43:33.574Z,3.29
2019-03-12T06:48:42.418Z,3.51
2019-03-12T06:53:50.783Z,3.01
2019-03-12T06:58:59.551Z,3.60
2019-03-12T07:04:07.924Z,3.44
2019-03-12T07:09:16.657Z,3.62
2019-03-12T07:14:24.981Z,3.46
2019-03-12T07:19:33.646Z,3.51
2019-03-12T07:24:42.049Z,3.56
2019-03-12T07:29:50.829Z,3.47
2019-03-12T07:34:59.270Z,4.30
2019-03-12T07:40:08.004Z,3.96
2019-03-12T07:45:16.470Z,3.91
2019-03-12T07:50:25.160Z,3.72
2019-03-12T07:55:33.592Z,3.64
2019-03-12T08:00:42.330Z,3.52
2019-03-12T08:05:50.767Z,3.29
2019-03-12T08:10:59.529Z,3.39
2019-03-12T08:16:08.477Z,3.76
2019-03-12T08:21:22.374Z,3.51
2019-03-12T08:26:26.248Z,3.46
2019-03-12T08:31:35.494Z,3.57
2019-03-12T08:36:44.474Z,3.64
2019-03-12T08:41:53.647Z,3.74
2019-03-12T08:47:02.647Z,3.46
2019-03-12T08:52:11.850Z,3.73
2019-03-12T08:57:20.773Z,3.27
2019-03-12T09:02:29.972Z,2.94
2019-03-12T09:07:38.899Z,3.36
2019-03-12T09:12:48.164Z,3.14
2019-03-12T09:17:57.031Z,3.32
2019-03-12T09:23:06.287Z,3.15
2019-03-12T09:28:15.206Z,3.52
2019-03-12T09:33:32.489Z,3.17
2019-03-12T09:38:31.541Z,2.86
2019-03-12T09:43:40.693Z,2.88
2019-03-12T09:48:50.049Z,2.76
2019-03-12T09:53:58.955Z,3.00
2019-03-12T09:59:08.167Z,2.70
2019-03-12T10:04:17.148Z,2.59
2019-03-12T10:09:26.398Z,2.78
2019-03-12T10:14:34.896Z,2.60
2019-03-12T10:19:45.296Z,2.54
2019-03-12T10:24:44.107Z,2.73
2019-03-12T10:29:53.066Z,2.43
2019-03-12T10:35:02.196Z,2.82
2019-03-12T10:40:11.197Z,2.89
2019-03-12T10:45:22.473Z,2.95
2019-03-12T10:50:21.423Z,2.66
2019-03-12T10:55:30.647Z,2.94
2019-03-12T11:00:39.584Z,2.41
2019-03-12T11:05:48.758Z,2.59
2019-03-12T11:10:57.667Z,3.04
2019-03-12T11:16:06.845Z,2.42
2019-03-12T11:21:15.824Z,2.73
2019-03-12T11:26:25.934Z,2.82
2019-03-12T11:31:24.840Z,2.98
2019-03-12T11:36:33.746Z,2.44
2019-03-12T11:41:43.450Z,2.42
2019-03-12T11:46:51.485Z,2.51
2019-03-12T11:52:00.804Z,2.60
2019-03-12T11:57:09.683Z,2.79
2019-03-12T12:07:33.069Z,2.64
2019-03-12T12:12:31.990Z,2.67
2019-03-12T12:17:40.845Z,2.70
2019-03-12T12:22:50.175Z,2.74
2019-03-12T12:28:00.731Z,2.72
2019-03-12T12:33:00.057Z,2.75
2019-03-12T12:38:08.446Z,2.87
2019-03-12T12:43:17.709Z,2.94
2019-03-12T12:48:26.658Z,3.03
2019-03-12T12:53:36.117Z,2.84
2019-03-12T12:58:45.070Z,2.60
2019-03-12T13:03:54.445Z,2.69
2019-03-12T13:09:03.496Z,2.56
2019-03-12T13:14:13.463Z,2.79
2019-03-12T13:19:21.614Z,2.81
2019-03-12T13:24:30.542Z,2.80
2019-03-12T13:29:39.875Z,2.66
2019-03-12T13:34:48.573Z,2.80
2019-03-12T13:39:57.548Z,2.68
2019-03-12T13:45:07.075Z,2.67
2019-03-12T13:50:16.104Z,2.65
2019-03-12T13:55:25.325Z,2.60
2019-03-12T14:00:34.314Z,2.37
2019-03-12T14:05:43.621Z,2.78
2019-03-12T14:10:52.531Z,2.38
2019-03-12T14:16:01.710Z,2.36
2019-03-12T14:21:10.404Z,2.43
2019-03-12T14:26:19.325Z,2.37
2019-03-12T14:31:28.517Z,2.55
2019-03-12T14:36:38.248Z,2.47
2019-03-12T14:41:47.190Z,2.18
2019-03-12T14:46:56.582Z,1.94
2019-03-12T14:52:05.509Z,2.37
2019-03-12T14:57:15.970Z,2.26
2019-03-12T15:02:19.158Z,2.34
2019-03-12T15:07:17.781Z,2.57
2019-03-12T15:12:26.724Z,2.05
2019-03-12T15:17:35.990Z,2.22
2019-03-12T15:22:48.032Z,1.99
2019-03-12T15:27:47.287Z,2.45
2019-03-12T15:32:56.201Z,2.05
2019-03-12T15:38:05.751Z,1.94
2019-03-12T15:43:14.625Z,1.92
2019-03-12T15:48:23.884Z,2.16
2019-03-12T15:53:32.862Z,1.93
2019-03-12T15:58:42.203Z,1.98
2019-03-12T16:03:51.319Z,1.69
2019-03-12T16:09:00.504Z,1.68
2019-03-12T16:14:09.705Z,1.85
2019-03-12T16:19:19.907Z,2.12
2019-03-12T16:24:18.892Z,1.89
2019-03-12T16:29:28.222Z,1.57
2019-03-12T16:34:37.770Z,1.61
2019-03-12T16:39:46.774Z,1.86
2019-03-12T16:44:56.249Z,1.87
2019-03-12T16:50:05.425Z,1.57
2019-03-12T16:55:13.009Z,1.57
2019-03-12T17:00:22.321Z,1.55
2019-03-12T17:05:33.329Z,1.88
2019-03-12T17:10:32.551Z,1.84
2019-03-12T17:15:41.630Z,1.90
2019-03-12T17:20:50.390Z,1.60
2019-03-12T17:25:59.396Z,1.79
2019-03-12T17:31:08.991Z,1.68
2019-03-12T17:36:18.118Z,1.69
2019-03-12T17:41:27.353Z,1.64
2019-03-12T17:46:36.492Z,1.33
2019-03-12T17:51:45.832Z,1.44
2019-03-12T17:56:54.913Z,1.44
2019-03-12T18:02:04.183Z,1.39
2019-03-12T18:07:13.285Z,1.76
2019-03-12T18:12:22.690Z,1.75
2019-03-12T18:17:32.044Z,1.41
2019-03-12T18:22:41.345Z,2.34
2019-03-12T18:27:50.384Z,1.21
2019-03-12T18:32:59.683Z,1.42
2019-03-12T18:38:08.728Z,1.38
2019-03-12T18:43:18.249Z,1.59
2019-03-12T18:48:26.719Z,1.38
2019-03-12T18:53:36.101Z,1.52
2019-03-12T18:58:45.116Z,1.52
2019-03-12T19:03:54.058Z,1.52
2019-03-12T19:09:03.105Z,1.41
2019-03-12T19:14:12.510Z,1.32
2019-03-12T19:19:21.518Z,1.48
2019-03-12T19:24:29.928Z,1.56
2019-03-12T19:29:39.030Z,1.58
2019-03-12T19:34:48.455Z,1.50
2019-03-12T19:39:56.978Z,1.52
2019-03-12T19:45:06.830Z,1.54
2019-03-12T19:50:15.944Z,1.52
2019-03-12T19:55:24.839Z,1.61
2019-03-12T20:00:51.424Z,1.70
2019-03-12T20:05:38.088Z,1.61
2019-03-12T20:10:48.169Z,1.51
2019-03-12T20:15:47.579Z,1.64
2019-03-12T20:20:58.761Z,1.79
2019-03-12T20:25:57.954Z,1.55
2019-03-12T20:31:08.160Z,1.58
2019-03-12T20:36:08.068Z,1.51
2019-03-12T20:41:17.291Z,1.64
2019-03-12T20:46:25.166Z,1.49
2019-03-12T20:51:33.679Z,1.45
2019-03-12T20:56:43.848Z,1.49
2019-03-12T21:01:43.258Z,1.48
2019-03-12T21:06:52.484Z,1.37
2019-03-12T21:12:01.862Z,1.57
2019-03-12T21:17:10.863Z,1.64
2019-03-12T21:22:21.476Z,1.38
2019-03-12T21:27:20.485Z,1.51
2019-03-12T21:32:29.500Z,1.59
2019-03-12T21:37:40.027Z,1.57
2019-03-12T21:42:39.640Z,1.67
2019-03-12T21:47:48.494Z,1.59
2019-03-12T21:52:57.788Z,1.60
2019-03-12T21:58:06.949Z,1.68
2019-03-12T22:03:17.394Z,1.72
2019-03-12T22:09:09.361Z,1.78
2019-03-12T22:14:18.889Z,1.52
2019-03-12T22:19:27.988Z,1.50
2019-03-12T22:24:37.467Z,1.59
2019-03-12T22:29:46.398Z,1.63
2019-03-12T22:34:55.403Z,1.32
2019-03-12T22:40:04.446Z,1.73
2019-03-12T22:45:13.741Z,1.46
2019-03-12T22:50:22.201Z,1.59
2019-03-12T22:55:31.351Z,1.39
2019-03-12T23:00:40.629Z,1.43
2019-03-12T23:05:49.645Z,1.43
2019-03-12T23:10:58.988Z,1.75
2019-03-12T23:16:08.002Z,1.71
2019-03-12T23:21:17.353Z,2.06
2019-03-12T23:26:26.516Z,1.66
2019-03-12T23:31:35.460Z,1.32
2019-03-12T23:36:44.558Z,1.27
2019-03-12T23:41:53.501Z,1.35
2019-03-12T23:47:02.220Z,0.64
2019-03-12T23:52:11.224Z,0.46
2019-03-12T23:57:19.764Z,0.52
